createdAt,value
2023-03-11T00:03:40.710Z,44868.25
2023-03-11T00:08:45.112Z,44876.25
2023-03-11T00:13:50.721Z,44848.28
2023-03-11T00:18:54.848Z,44872.25
2023-03-11T00:24:01.414Z,44836.31
2023-03-11T00:29:07.306Z,44812.34
2023-03-11T00:34:11.797Z,44744.47
2023-03-11T00:39:15.944Z,44716.53
2023-03-11T00:44:22.944Z,44592.75
2023-03-11T00:49:28.342Z,44492.97
2023-03-11T00:54:32.605Z,44496.94
2023-03-11T00:59:38.933Z,44588.78
2023-03-11T01:04:43.763Z,44612.72
2023-03-11T01:09:48.733Z,44644.66
2023-03-11T01:14:54.533Z,44718.53
2023-03-11T01:19:58.707Z,44798.38
2023-03-11T01:25:02.916Z,44848.28
2023-03-11T01:30:10.951Z,44896.19
2023-03-11T01:35:16.503Z,44952.09
2023-03-11T01:40:25.724Z,44992.03
2023-03-11T01:46:03.941Z,45016.00
2023-03-11T01:51:10.753Z,45031.97
2023-03-11T01:56:15.498Z,45099.84
2023-03-11T02:01:22.814Z,45099.84
2023-03-11T02:06:28.164Z,45107.81
2023-03-11T02:11:33.280Z,45113.81
2023-03-11T02:16:39.906Z,45099.84
2023-03-11T02:21:44.757Z,45047.94
2023-03-11T02:26:57.362Z,45023.97
2023-03-11T02:32:07.000Z,44980.06
2023-03-11T02:37:15.132Z,45006.00
2023-03-11T02:42:28.105Z,45000.00
2023-03-11T02:47:32.807Z,44984.03
2023-03-11T02:52:37.825Z,44980.06
2023-03-11T02:57:44.214Z,44970.06
2023-03-11T03:02:52.510Z,44938.13
2023-03-11T03:07:58.429Z,45000.00
2023-03-11T03:13:04.543Z,45071.88
2023-03-11T03:18:08.820Z,45121.81
2023-03-11T03:23:13.109Z,45087.84
2023-03-11T03:28:20.136Z,45095.84
2023-03-11T03:33:24.739Z,45039.94
2023-03-11T03:38:28.988Z,44930.16
2023-03-11T03:43:34.928Z,44654.66
2023-03-11T03:48:39.761Z,44654.66
2023-03-11T03:53:47.488Z,44580.78
2023-03-11T03:58:54.717Z,44457.03
2023-03-11T04:04:01.980Z,44285.34
2023-03-11T04:09:06.934Z,43930.06
2023-03-11T04:14:13.912Z,43554.88
2023-03-11T04:19:26.443Z,43002.09
2023-03-11T04:24:31.324Z,42437.44
2023-03-11T04:29:38.027Z,41958.63
2023-03-11T04:34:43.326Z,41755.16
2023-03-11T04:39:53.688Z,41487.88
2023-03-11T04:44:59.902Z,41416.06
2023-03-11T04:50:07.278Z,41232.56
2023-03-11T04:55:14.005Z,41071.00
2023-03-11T05:00:25.368Z,40977.28
2023-03-11T05:05:39.177Z,40943.38
2023-03-11T05:10:44.638Z,40865.59
2023-03-11T05:15:51.057Z,40793.78
2023-03-11T05:20:55.566Z,40869.56
2023-03-11T05:26:03.213Z,40763.88
2023-03-11T05:31:11.669Z,40708.03
2023-03-11T05:36:16.594Z,40626.28
2023-03-11T05:41:22.425Z,40694.09
2023-03-11T05:46:28.448Z,40825.69
2023-03-11T05:51:33.573Z,40841.66
2023-03-11T05:56:38.541Z,40885.53
2023-03-11T06:01:46.518Z,40909.47
2023-03-11T06:06:51.389Z,40929.41
2023-03-11T06:11:58.449Z,40951.34
2023-03-11T06:17:11.985Z,40889.53
2023-03-11T06:22:16.482Z,41033.13
2023-03-11T06:27:21.329Z,41192.66
2023-03-11T06:32:27.165Z,41284.41
2023-03-11T06:37:31.824Z,41196.66
2023-03-11T06:42:36.949Z,41120.88
2023-03-11T06:47:44.169Z,41234.56
2023-03-11T06:52:49.071Z,41248.53
2023-03-11T06:57:53.692Z,41364.19
2023-03-11T07:02:59.703Z,41416.06
2023-03-11T07:08:05.136Z,41280.44
2023-03-11T07:13:10.426Z,41260.50
2023-03-11T07:18:17.661Z,41240.53
2023-03-11T07:23:22.667Z,41296.38
2023-03-11T07:28:29.469Z,41238.53
2023-03-11T07:33:35.275Z,41276.44
2023-03-11T07:38:41.793Z,41320.31
2023-03-11T07:43:46.304Z,41264.47
2023-03-11T07:48:53.149Z,41272.44
2023-03-11T07:53:59.072Z,41436.00
2023-03-11T07:59:05.469Z,41392.13
2023-03-11T08:04:14.437Z,41324.31
2023-03-11T08:09:19.270Z,41455.97
2023-03-11T08:14:23.862Z,41334.28
2023-03-11T08:19:29.675Z,41346.25
2023-03-11T08:24:36.108Z,41324.31
2023-03-11T08:29:40.654Z,41330.28
2023-03-11T08:34:46.762Z,41408.09
2023-03-11T08:39:51.348Z,41428.03
2023-03-11T08:44:55.706Z,41527.75
2023-03-11T08:50:01.788Z,41471.91
2023-03-11T08:55:09.075Z,41511.81
2023-03-11T09:00:15.153Z,41503.81
2023-03-11T09:05:21.255Z,41308.34
2023-03-11T09:10:25.672Z,41260.50
2023-03-11T09:15:30.143Z,41244.53
2023-03-11T09:20:38.627Z,41316.34
2023-03-11T09:25:43.045Z,41422.03
2023-03-11T09:30:47.642Z,41400.09
2023-03-11T09:35:53.381Z,41487.88
2023-03-11T09:41:03.224Z,41499.84
2023-03-11T09:46:29.850Z,41507.81
2023-03-11T09:51:39.998Z,41469.91
2023-03-11T09:56:46.072Z,41511.81
2023-03-11T10:01:52.460Z,41549.72
2023-03-11T10:07:00.340Z,41563.66
2023-03-11T10:12:19.883Z,41619.53
2023-03-11T10:17:45.101Z,41569.66
2023-03-11T10:23:00.029Z,41577.63
2023-03-11T10:28:08.783Z,41519.78
2023-03-11T10:33:23.310Z,41565.66
2023-03-11T10:38:35.407Z,41539.72
2023-03-11T10:43:44.375Z,41533.75
2023-03-11T10:48:48.708Z,41553.69
2023-03-11T10:53:56.380Z,41553.69
2023-03-11T10:59:01.317Z,41531.75
2023-03-11T11:04:25.027Z,41563.66
2023-03-11T11:09:32.681Z,41639.47
2023-03-11T11:14:48.213Z,41667.41
2023-03-11T11:19:53.672Z,41633.47
2023-03-11T11:24:59.708Z,41723.25
2023-03-11T11:30:16.032Z,41523.78
2023-03-11T11:35:20.959Z,41547.72
2023-03-11T11:40:29.601Z,41617.53
2023-03-11T11:45:40.062Z,41647.44
2023-03-11T11:50:53.038Z,41571.66
2023-03-11T11:55:58.968Z,41625.50
2023-03-11T12:01:14.953Z,41533.75
2023-03-11T12:06:27.280Z,41356.22
2023-03-11T12:11:41.971Z,41362.22
2023-03-11T12:16:53.090Z,41603.56
2023-03-11T12:22:45.658Z,41647.44
2023-03-11T12:27:56.072Z,41623.50
2023-03-11T12:33:04.138Z,41603.56
2023-03-11T12:38:18.674Z,41414.06
2023-03-11T12:43:30.749Z,41394.13
2023-03-11T12:48:37.351Z,41485.88
2023-03-11T12:53:48.352Z,41585.59
2023-03-11T12:59:07.671Z,41671.38
2023-03-11T13:04:26.691Z,41535.75
2023-03-11T13:09:32.026Z,41615.53
2023-03-11T13:14:37.814Z,41376.16
2023-03-11T13:19:51.521Z,41332.28
2023-03-11T13:24:56.336Z,41380.16
2023-03-11T13:30:12.087Z,41362.22
2023-03-11T13:35:32.648Z,41340.28
2023-03-11T13:40:41.180Z,41396.13
2023-03-11T13:45:54.366Z,41228.56
2023-03-11T13:51:02.036Z,41164.75
2023-03-11T13:56:07.181Z,41152.78
2023-03-11T14:01:19.081Z,41266.47
2023-03-11T14:06:23.773Z,41286.41
2023-03-11T14:11:30.153Z,41402.09
2023-03-11T14:16:44.484Z,41436.00
2023-03-11T14:21:51.745Z,41479.88
2023-03-11T14:26:59.345Z,41517.78
2023-03-11T14:32:27.049Z,41655.44
2023-03-11T14:37:34.493Z,41645.44
2023-03-11T14:42:41.320Z,41611.53
2023-03-11T14:47:52.518Z,41773.13
2023-03-11T14:53:04.256Z,41842.94
2023-03-11T14:58:16.217Z,41924.72
2023-03-11T15:03:25.357Z,42058.38
2023-03-11T15:08:33.266Z,42146.16
2023-03-11T15:13:38.755Z,42024.47
2023-03-11T15:18:44.568Z,42022.47
2023-03-11T15:23:51.337Z,42012.50
2023-03-11T15:28:59.305Z,41960.63
2023-03-11T15:34:29.016Z,41866.88
2023-03-11T15:39:45.359Z,41687.34
2023-03-11T15:45:13.531Z,41779.09
2023-03-11T15:50:26.002Z,41687.34
2023-03-11T15:55:32.956Z,41836.94
2023-03-11T16:00:38.323Z,41950.66
2023-03-11T16:05:44.127Z,42114.25
2023-03-11T16:10:48.670Z,42196.03
2023-03-11T16:15:52.917Z,42315.75
2023-03-11T16:20:58.722Z,42387.56
2023-03-11T16:26:05.305Z,42409.50
2023-03-11T16:31:10.006Z,42321.72
2023-03-11T16:36:15.623Z,42178.06
2023-03-11T16:41:20.052Z,42058.38
2023-03-11T16:46:24.351Z,42070.34
2023-03-11T16:51:29.995Z,42088.31
2023-03-11T16:56:34.381Z,42271.84
2023-03-11T17:01:39.316Z,42196.03
2023-03-11T17:06:45.205Z,42265.84
2023-03-11T17:11:50.334Z,42305.75
2023-03-11T17:16:54.544Z,42295.78
2023-03-11T17:22:00.192Z,42204.00
2023-03-11T17:27:05.433Z,42261.88
2023-03-11T17:32:10.141Z,42214.00
2023-03-11T17:37:15.707Z,42297.78
2023-03-11T17:42:19.820Z,42315.75
2023-03-11T17:47:26.327Z,42273.84
2023-03-11T17:52:32.430Z,42315.75
2023-03-11T17:57:45.095Z,42349.66
2023-03-11T18:02:51.437Z,42445.41
2023-03-11T18:07:57.601Z,42429.47
2023-03-11T18:13:01.743Z,42349.66
2023-03-11T18:18:06.355Z,42363.63
2023-03-11T18:23:12.590Z,42351.66
2023-03-11T18:28:17.002Z,42341.66
2023-03-11T18:33:21.367Z,42325.72
2023-03-11T18:38:27.289Z,42343.66
2023-03-11T18:43:31.402Z,42355.63
2023-03-11T18:48:35.840Z,42389.56
2023-03-11T18:53:42.919Z,42431.44
2023-03-11T18:58:47.868Z,42511.25
2023-03-11T19:03:54.283Z,42577.09
2023-03-11T19:09:00.001Z,42632.97
2023-03-11T19:14:04.441Z,42611.03
2023-03-11T19:19:11.328Z,42583.09
2023-03-11T19:24:17.696Z,42549.16
2023-03-11T19:29:23.988Z,42525.22
2023-03-11T19:34:29.161Z,42501.28
2023-03-11T19:39:34.858Z,42583.09
2023-03-11T19:44:39.659Z,42670.88
2023-03-11T19:49:43.946Z,42734.72
2023-03-11T19:54:50.457Z,42702.81
2023-03-11T19:59:56.529Z,42770.63
2023-03-11T20:05:00.808Z,42788.59
2023-03-11T20:10:07.354Z,42820.53
2023-03-11T20:15:12.783Z,42860.44
2023-03-11T20:20:17.085Z,42942.25
2023-03-11T20:25:22.919Z,42862.41
2023-03-11T20:30:27.872Z,42854.44
2023-03-11T20:35:32.685Z,42984.13
2023-03-11T20:40:38.642Z,43067.94
2023-03-11T20:45:42.944Z,43020.06
2023-03-11T20:50:47.365Z,43022.06
2023-03-11T20:55:52.868Z,43121.81
2023-03-11T21:00:57.088Z,43243.56
2023-03-11T21:06:01.360Z,43289.44
2023-03-11T21:11:07.395Z,43297.44
2023-03-11T21:16:12.214Z,43271.50
2023-03-11T21:21:18.579Z,43339.34
2023-03-11T21:26:24.725Z,43445.09
2023-03-11T21:31:29.910Z,43189.66
2023-03-11T21:36:35.107Z,42896.34
2023-03-11T21:41:41.358Z,42764.66
2023-03-11T21:46:45.807Z,42650.91
2023-03-11T21:51:50.506Z,42529.22
2023-03-11T21:56:56.582Z,42529.22
2023-03-11T22:02:03.299Z,42389.56
2023-03-11T22:07:07.839Z,42423.47
2023-03-11T22:12:13.663Z,42457.38
2023-03-11T22:17:18.571Z,42395.53
2023-03-11T22:22:22.879Z,42489.31
2023-03-11T22:27:28.715Z,42529.22
2023-03-11T22:32:33.433Z,42565.13
2023-03-11T22:37:37.694Z,42565.13
2023-03-11T22:42:43.511Z,42581.09
2023-03-11T22:47:47.906Z,42613.00
2023-03-11T22:52:52.464Z,42644.94
2023-03-11T22:57:58.401Z,42752.69
2023-03-11T23:03:03.170Z,42740.72
2023-03-11T23:08:07.458Z,42764.66
2023-03-11T23:13:13.818Z,42748.69
2023-03-11T23:18:18.547Z,42742.69
2023-03-11T23:23:22.872Z,42732.72
2023-03-11T23:28:28.714Z,42744.69
2023-03-11T23:33:33.146Z,42724.75
2023-03-11T23:38:38.272Z,42646.94
2023-03-11T23:43:45.094Z,42543.19
2023-03-11T23:48:49.316Z,42529.22
2023-03-11T23:53:53.904Z,42628.97
2023-03-11T23:58:59.696Z,42744.69
